createdAt,value
2018-02-19T00:00:30.871Z,99870
2018-02-19T00:02:37.826Z,99869
2018-02-19T00:04:43.594Z,99869
2018-02-19T00:06:49.885Z,99869
2018-02-19T00:08:55.002Z,99869
2018-02-19T00:11:00.077Z,99863
2018-02-19T00:13:05.668Z,99869
2018-02-19T00:15:10.926Z,99865
2018-02-19T00:17:16.377Z,99864
2018-02-19T00:19:21.782Z,99863
2018-02-19T00:21:26.925Z,99862
2018-02-19T00:23:32.729Z,99861
2018-02-19T00:25:38.114Z,99857
2018-02-19T00:27:43.542Z,99852
2018-02-19T00:29:49.093Z,99853
2018-02-19T00:31:54.780Z,99851
2018-02-19T00:34:00.164Z,99850
2018-02-19T00:36:05.895Z,99845
2018-02-19T00:38:11.593Z,99844
2018-02-19T00:40:17.185Z,99847
2018-02-19T00:42:22.293Z,99849
2018-02-19T00:44:28.133Z,99850
2018-02-19T00:46:33.542Z,99847
2018-02-19T00:48:39.958Z,99836
2018-02-19T00:50:45.570Z,99833
2018-02-19T00:52:51.439Z,99836
2018-02-19T00:54:57.655Z,99836
2018-02-19T00:57:03.544Z,99838
2018-02-19T00:59:09.457Z,99840
2018-02-19T01:01:14.835Z,99837
2018-02-19T01:03:20.263Z,99837
2018-02-19T01:05:26.370Z,99841
2018-02-19T01:10:28.052Z,99831
2018-02-19T01:12:33.680Z,99832
2018-02-19T01:14:39.000Z,99830
2018-02-19T01:16:44.436Z,99836
2018-02-19T01:18:50.491Z,99835
2018-02-19T01:20:56.884Z,99830
2018-02-19T01:23:02.836Z,99832
2018-02-19T01:25:08.804Z,99822
2018-02-19T01:27:14.763Z,99822
2018-02-19T01:29:21.052Z,99823
2018-02-19T01:31:26.326Z,99819
2018-02-19T01:33:31.633Z,99815
2018-02-19T01:35:37.185Z,99819
2018-02-19T01:37:42.469Z,99814
2018-02-19T01:39:48.946Z,99818
2018-02-19T01:41:54.838Z,99812
2018-02-19T01:44:00.945Z,99811
2018-02-19T01:46:06.990Z,99816
2018-02-19T01:48:12.327Z,99803
2018-02-19T01:50:18.432Z,99799
2018-02-19T01:52:24.172Z,99798
2018-02-19T01:54:29.861Z,99792
2018-02-19T01:56:35.687Z,99784
2018-02-19T01:58:41.456Z,99783
2018-02-19T02:00:47.741Z,99779
2018-02-19T02:02:53.291Z,99781
2018-02-19T02:04:59.668Z,99774
2018-02-19T02:07:04.978Z,99772
2018-02-19T02:09:11.455Z,99774
2018-02-19T02:11:17.389Z,99767
2018-02-19T02:13:22.755Z,99773
2018-02-19T02:15:28.783Z,99765
2018-02-19T02:17:34.639Z,99762
2018-02-19T02:19:40.316Z,99760
2018-02-19T02:21:46.843Z,99765
2018-02-19T02:23:52.600Z,99766
2018-02-19T02:25:58.628Z,99762
2018-02-19T02:28:03.944Z,99761
2018-02-19T02:30:09.596Z,99761
2018-02-19T02:32:15.325Z,99761
2018-02-19T02:34:21.963Z,99765
2018-02-19T02:36:27.767Z,99765
2018-02-19T02:38:33.833Z,99759
2018-02-19T02:40:39.752Z,99760
2018-02-19T02:42:45.077Z,99762
2018-02-19T02:44:50.619Z,99765
2018-02-19T02:46:56.820Z,99763
2018-02-19T02:49:02.691Z,99758
2018-02-19T02:51:08.372Z,99760
2018-02-19T02:53:14.182Z,99749
2018-02-19T02:55:20.344Z,99744
2018-02-19T02:57:26.071Z,99745
2018-02-19T02:59:32.140Z,99740
2018-02-19T03:01:37.944Z,99742
2018-02-19T03:03:43.672Z,99736
2018-02-19T03:05:49.572Z,99735
2018-02-19T03:07:55.432Z,99733
2018-02-19T03:10:01.539Z,99734
2018-02-19T03:12:07.597Z,99730
2018-02-19T03:14:14.115Z,99729
2018-02-19T03:16:34.393Z,99733
2018-02-19T03:18:40.535Z,99733
2018-02-19T03:20:46.543Z,99733
2018-02-19T03:22:52.326Z,99731
2018-02-19T03:24:58.798Z,99730
2018-02-19T03:27:04.960Z,99729
2018-02-19T03:29:10.169Z,99731
2018-02-19T03:31:16.075Z,99736
2018-02-19T03:33:21.584Z,99732
2018-02-19T03:35:27.710Z,99728
2018-02-19T03:37:33.679Z,99726
2018-02-19T03:39:39.204Z,99730
2018-02-19T03:41:45.577Z,99729
2018-02-19T03:43:52.519Z,99725
2018-02-19T03:45:57.915Z,99722
2018-02-19T03:48:08.364Z,99723
2018-02-19T03:50:14.213Z,99723
2018-02-19T03:52:22.144Z,99720
2018-02-19T03:54:28.014Z,99718
2018-02-19T03:56:35.072Z,99724
2018-02-19T03:58:45.023Z,99719
2018-02-19T04:00:50.429Z,99715
2018-02-19T04:02:56.639Z,99714
2018-02-19T04:05:05.246Z,99710
2018-02-19T04:07:10.614Z,99716
2018-02-19T04:09:16.396Z,99711
2018-02-19T04:11:22.794Z,99712
2018-02-19T04:13:29.520Z,99712
2018-02-19T04:15:36.036Z,99714
2018-02-19T04:17:45.253Z,99711
2018-02-19T04:19:54.104Z,99717
2018-02-19T04:21:59.845Z,99716
2018-02-19T04:24:06.567Z,99715
2018-02-19T04:26:13.154Z,99708
2018-02-19T04:28:19.205Z,99708
2018-02-19T04:30:24.956Z,99707
2018-02-19T04:32:30.331Z,99703
2018-02-19T04:34:35.632Z,99707
2018-02-19T04:36:42.163Z,99695
2018-02-19T04:38:47.873Z,99692
2018-02-19T04:40:53.250Z,99694
2018-02-19T04:42:58.690Z,99690
2018-02-19T04:45:04.528Z,99685
2018-02-19T04:47:10.063Z,99685
2018-02-19T04:49:15.336Z,99678
2018-02-19T04:51:20.749Z,99677
2018-02-19T04:53:26.434Z,99672
2018-02-19T04:55:32.020Z,99672
2018-02-19T04:57:37.940Z,99672
2018-02-19T04:59:43.556Z,99669
2018-02-19T05:01:49.294Z,99672
2018-02-19T05:03:54.643Z,99676
2018-02-19T05:05:59.907Z,99673
2018-02-19T05:08:05.175Z,99677
2018-02-19T05:10:10.866Z,99671
2018-02-19T05:12:16.245Z,99672
2018-02-19T05:14:21.611Z,99676
2018-02-19T05:16:27.119Z,99675
2018-02-19T05:18:33.326Z,99673
2018-02-19T05:20:38.916Z,99676
2018-02-19T05:22:44.645Z,99674
2018-02-19T05:24:50.304Z,99676
2018-02-19T05:26:55.951Z,99675
2018-02-19T05:29:01.262Z,99678
2018-02-19T05:31:06.608Z,99676
2018-02-19T05:33:12.016Z,99676
2018-02-19T05:35:18.052Z,99676
2018-02-19T05:37:23.980Z,99675
2018-02-19T05:39:29.860Z,99673
2018-02-19T05:41:35.183Z,99676
2018-02-19T05:43:40.812Z,99674
2018-02-19T05:45:46.124Z,99670
2018-02-19T05:47:51.435Z,99673
2018-02-19T05:49:57.727Z,99669
2018-02-19T05:52:02.983Z,99669
2018-02-19T05:54:08.260Z,99669
2018-02-19T05:57:37.915Z,99667
2018-02-19T05:59:43.527Z,99665
2018-02-19T06:01:49.128Z,99669
2018-02-19T06:03:55.134Z,99666
2018-02-19T06:06:01.048Z,99665
2018-02-19T06:08:06.424Z,99660
2018-02-19T06:10:12.567Z,99663
2018-02-19T06:12:17.819Z,99662
2018-02-19T06:14:23.062Z,99662
2018-02-19T06:16:28.671Z,99661
2018-02-19T06:18:34.016Z,99664
2018-02-19T06:20:40.578Z,99661
2018-02-19T06:22:46.450Z,99662
2018-02-19T06:24:52.259Z,99661
2018-02-19T06:26:57.509Z,99663
2018-02-19T06:29:03.143Z,99660
2018-02-19T06:31:08.340Z,99657
2018-02-19T06:33:13.584Z,99666
2018-02-19T06:35:20.657Z,99664
2018-02-19T06:37:25.928Z,99663
2018-02-19T06:39:32.279Z,99659
2018-02-19T06:41:38.532Z,99659
2018-02-19T06:43:43.803Z,99661
2018-02-19T06:45:49.071Z,99665
2018-02-19T06:47:54.620Z,99663
2018-02-19T06:49:59.888Z,99663
2018-02-19T06:52:05.761Z,99662
2018-02-19T06:54:12.459Z,99661
2018-02-19T06:56:17.796Z,99661
2018-02-19T06:58:23.381Z,99663
2018-02-19T07:00:29.671Z,99661
2018-02-19T07:02:34.957Z,99661
2018-02-19T07:04:40.278Z,99655
2018-02-19T07:06:45.944Z,99659
2018-02-19T07:08:51.132Z,99660
2018-02-19T07:10:56.410Z,99660
2018-02-19T07:13:01.945Z,99665
2018-02-19T07:15:07.527Z,99664
2018-02-19T07:17:13.804Z,99662
2018-02-19T07:19:19.386Z,99659
2018-02-19T07:21:24.655Z,99656
2018-02-19T07:23:30.514Z,99658
2018-02-19T07:25:36.077Z,99655
2018-02-19T07:27:42.033Z,99654
2018-02-19T07:29:47.327Z,99652
2018-02-19T07:31:54.171Z,99649
2018-02-19T07:33:59.440Z,99645
2018-02-19T07:36:04.828Z,99644
2018-02-19T07:38:10.933Z,99641
2018-02-19T07:40:16.142Z,99644
2018-02-19T07:42:21.435Z,99649
2018-02-19T07:44:27.416Z,99643
2018-02-19T07:46:32.684Z,99637
2018-02-19T07:48:38.528Z,99646
2018-02-19T07:50:44.209Z,99644
2018-02-19T07:52:49.460Z,99653
2018-02-19T07:54:54.725Z,99651
2018-02-19T07:57:00.513Z,99647
2018-02-19T07:59:06.576Z,99650
2018-02-19T08:01:11.936Z,99649
2018-02-19T08:03:17.825Z,99651
2018-02-19T08:05:23.142Z,99649
2018-02-19T08:07:28.420Z,99651
2018-02-19T08:09:34.000Z,99652
2018-02-19T08:11:39.267Z,99649
2018-02-19T08:13:44.576Z,99643
2018-02-19T08:15:50.388Z,99644
2018-02-19T08:17:56.004Z,99642
2018-02-19T08:20:01.320Z,99642
2018-02-19T08:22:06.012Z,99644
2018-02-19T08:24:12.213Z,99653
2018-02-19T08:26:18.010Z,99649
2018-02-19T08:28:23.712Z,99639
2018-02-19T08:30:29.811Z,99649
2018-02-19T08:32:35.103Z,99647
2018-02-19T08:34:40.892Z,99654
2018-02-19T08:36:46.499Z,99642
2018-02-19T08:38:52.251Z,99645
2018-02-19T08:40:58.214Z,99643
2018-02-19T08:43:03.580Z,99641
2018-02-19T08:45:09.600Z,99643
2018-02-19T08:47:14.967Z,99639
2018-02-19T08:49:20.409Z,99635
2018-02-19T08:51:27.000Z,99636
2018-02-19T08:53:32.405Z,99632
2018-02-19T08:55:38.047Z,99626
2018-02-19T08:57:43.935Z,99624
2018-02-19T08:59:49.259Z,99624
2018-02-19T09:01:55.301Z,99625
2018-02-19T09:04:00.824Z,99621
2018-02-19T09:06:06.088Z,99619
2018-02-19T09:08:11.360Z,99614
2018-02-19T09:10:16.980Z,99612
2018-02-19T09:12:22.208Z,99614
2018-02-19T09:14:27.543Z,99607
2018-02-19T09:16:33.771Z,99604
2018-02-19T09:18:38.985Z,99602
2018-02-19T09:20:44.201Z,99607
2018-02-19T09:22:50.767Z,99598
2018-02-19T09:24:56.075Z,99592
2018-02-19T09:27:01.921Z,99594
2018-02-19T09:29:07.657Z,99593
2018-02-19T09:31:13.405Z,99587
2018-02-19T09:33:18.794Z,99595
2018-02-19T09:35:24.509Z,99592
2018-02-19T09:37:29.816Z,99588
2018-02-19T09:39:35.068Z,99587
2018-02-19T09:41:41.312Z,99589
2018-02-19T09:43:47.383Z,99586
2018-02-19T09:45:52.813Z,99583
2018-02-19T09:47:58.343Z,99578
2018-02-19T09:50:04.380Z,99580
2018-02-19T09:52:09.676Z,99581
2018-02-19T09:54:15.337Z,99582
2018-02-19T09:56:21.240Z,99580
2018-02-19T09:58:26.559Z,99586
2018-02-19T10:00:32.365Z,99577
2018-02-19T10:02:37.588Z,99579
2018-02-19T10:04:43.700Z,99577
2018-02-19T10:06:49.309Z,99570
2018-02-19T10:08:55.636Z,99568
2018-02-19T10:11:02.557Z,99566
2018-02-19T10:13:08.412Z,99567
2018-02-19T10:15:13.784Z,99566
2018-02-19T10:17:19.081Z,99564
2018-02-19T10:19:25.661Z,99565
2018-02-19T10:21:31.530Z,99564
2018-02-19T10:23:37.627Z,99560
2018-02-19T10:25:43.393Z,99563
2018-02-19T10:27:48.813Z,99560
2018-02-19T10:29:54.169Z,99558
2018-02-19T10:31:59.909Z,99558
2018-02-19T10:34:05.450Z,99554
2018-02-19T10:36:10.818Z,99548
2018-02-19T10:38:16.347Z,99544
2018-02-19T10:40:22.020Z,99541
2018-02-19T10:42:28.695Z,99544
2018-02-19T10:44:34.327Z,99541
2018-02-19T10:46:40.068Z,99538
2018-02-19T10:48:45.895Z,99538
2018-02-19T10:50:51.507Z,99538
2018-02-19T10:52:56.803Z,99533
2018-02-19T10:55:02.176Z,99531
2018-02-19T10:57:07.680Z,99530
2018-02-19T10:59:12.990Z,99531
2018-02-19T11:01:18.432Z,99528
2018-02-19T11:03:24.262Z,99521
2018-02-19T11:05:29.686Z,99525
2018-02-19T11:07:34.914Z,99519
2018-02-19T11:09:40.431Z,99518
2018-02-19T11:11:45.727Z,99514
2018-02-19T11:13:51.521Z,99514
2018-02-19T11:15:57.125Z,99507
2018-02-19T11:18:02.320Z,99505
2018-02-19T11:20:09.016Z,99503
2018-02-19T11:22:15.356Z,99505
2018-02-19T11:24:20.853Z,99503
2018-02-19T11:26:27.163Z,99496
2018-02-19T11:28:36.593Z,99497
2018-02-19T11:30:41.963Z,99496
2018-02-19T11:32:47.413Z,99493
2018-02-19T11:34:53.090Z,99493
2018-02-19T11:36:58.407Z,99491
2018-02-19T11:39:03.709Z,99485
2018-02-19T11:41:09.626Z,99486
2018-02-19T11:43:14.923Z,99481
2018-02-19T11:45:20.785Z,99481
2018-02-19T11:47:27.059Z,99469
2018-02-19T11:49:32.404Z,99468
2018-02-19T11:51:38.710Z,99466
2018-02-19T11:53:44.336Z,99464
2018-02-19T11:55:50.456Z,99463
2018-02-19T11:57:55.882Z,99466
2018-02-19T12:00:02.328Z,99455
2018-02-19T12:02:07.657Z,99459
2018-02-19T12:04:13.375Z,99457
2018-02-19T12:06:19.012Z,99449
2018-02-19T12:08:26.058Z,99453
2018-02-19T12:10:32.658Z,99443
2018-02-19T12:12:39.539Z,99442
2018-02-19T12:14:45.105Z,99440
2018-02-19T12:16:51.372Z,99442
2018-02-19T12:18:57.708Z,99435
2018-02-19T12:21:03.655Z,99437
2018-02-19T12:23:09.252Z,99430
2018-02-19T12:25:15.736Z,99429
2018-02-19T12:27:21.177Z,99429
2018-02-19T12:29:26.413Z,99436
2018-02-19T12:31:32.499Z,99426
2018-02-19T12:33:37.895Z,99422
2018-02-19T12:35:44.102Z,99417
2018-02-19T12:37:49.939Z,99418
2018-02-19T12:39:55.948Z,99413
2018-02-19T12:42:01.566Z,99404
2018-02-19T12:44:07.463Z,99405
2018-02-19T12:46:12.838Z,99404
2018-02-19T12:48:18.300Z,99403
2018-02-19T12:50:23.898Z,99411
2018-02-19T12:52:29.194Z,99400
2018-02-19T12:54:34.963Z,99395
2018-02-19T12:56:40.671Z,99390
2018-02-19T12:58:46.325Z,99396
2018-02-19T13:00:51.655Z,99393
2018-02-19T13:02:58.813Z,99391
2018-02-19T13:05:04.560Z,99388
2018-02-19T13:07:09.984Z,99381
2018-02-19T13:09:17.756Z,99378
2018-02-19T13:11:23.889Z,99377
2018-02-19T13:13:30.608Z,99378
2018-02-19T13:15:36.440Z,99375
2018-02-19T13:17:41.749Z,99377
2018-02-19T13:19:47.165Z,99378
2018-02-19T13:21:52.968Z,99369
2018-02-19T13:23:58.387Z,99367
2018-02-19T13:26:04.520Z,99363
2018-02-19T13:28:10.140Z,99369
2018-02-19T13:30:18.348Z,99367
2018-02-19T13:32:23.720Z,99371
2018-02-19T13:34:29.329Z,99368
2018-02-19T13:36:35.283Z,99364
2018-02-19T13:38:40.971Z,99358
2018-02-19T13:40:48.355Z,99360
2018-02-19T13:42:53.716Z,99354
2018-02-19T13:44:59.053Z,99349
2018-02-19T13:47:04.792Z,99354
2018-02-19T13:49:11.505Z,99346
2018-02-19T13:51:16.904Z,99350
2018-02-19T13:53:22.597Z,99344
2018-02-19T13:55:28.508Z,99344
2018-02-19T13:57:33.902Z,99344
2018-02-19T13:59:39.609Z,99339
2018-02-19T14:01:46.075Z,99339
2018-02-19T14:03:51.698Z,99336
2018-02-19T14:05:57.435Z,99331
2018-02-19T14:08:02.931Z,99337
2018-02-19T14:10:07.925Z,99338
2018-02-19T14:12:13.861Z,99335
2018-02-19T14:14:19.285Z,99342
2018-02-19T14:16:24.639Z,99341
2018-02-19T14:18:30.372Z,99331
2018-02-19T14:20:35.724Z,99330
2018-02-19T14:22:41.128Z,99324
2018-02-19T14:24:51.172Z,99327
2018-02-19T14:26:56.528Z,99322
2018-02-19T14:29:02.101Z,99324
2018-02-19T14:31:07.653Z,99329
2018-02-19T14:33:12.939Z,99326
2018-02-19T14:35:18.536Z,99324
2018-02-19T14:37:24.190Z,99330
2018-02-19T14:39:30.194Z,99329
2018-02-19T14:41:35.994Z,99326
2018-02-19T14:43:42.190Z,99321
2018-02-19T14:45:49.060Z,99314
2018-02-19T14:47:54.479Z,99317
2018-02-19T14:50:00.323Z,99315
2018-02-19T14:52:05.722Z,99308
2018-02-19T14:54:11.919Z,99309
2018-02-19T14:56:17.668Z,99312
2018-02-19T14:58:23.055Z,99314
2018-02-19T15:00:28.283Z,99308
2018-02-19T15:02:33.988Z,99311
2018-02-19T15:04:39.335Z,99308
2018-02-19T15:06:44.604Z,99308
2018-02-19T15:08:50.141Z,99315
2018-02-19T15:10:56.468Z,99315
2018-02-19T15:13:01.740Z,99308
2018-02-19T15:16:31.591Z,99301
2018-02-19T15:20:02.428Z,99302
2018-02-19T15:22:08.040Z,99300
2018-02-19T15:24:13.820Z,99303
2018-02-19T15:26:19.208Z,99298
2018-02-19T15:28:24.802Z,99301
2018-02-19T15:30:30.324Z,99302
2018-02-19T15:32:35.782Z,99295
2018-02-19T15:34:45.829Z,99295
2018-02-19T15:36:51.266Z,99297
2018-02-19T15:38:56.992Z,99299
2018-02-19T15:41:02.770Z,99299
2018-02-19T15:43:07.971Z,99299
2018-02-19T15:45:13.452Z,99293
2018-02-19T15:47:19.080Z,99291
2018-02-19T15:49:24.437Z,99286
2018-02-19T15:51:30.469Z,99284
2018-02-19T15:53:36.235Z,99282
2018-02-19T15:55:42.468Z,99279
2018-02-19T15:57:47.973Z,99286
2018-02-19T15:59:54.477Z,99294
2018-02-19T16:01:59.931Z,99291
2018-02-19T16:04:06.766Z,99288
2018-02-19T16:06:12.664Z,99281
2018-02-19T16:08:20.341Z,99281
2018-02-19T16:10:26.078Z,99283
2018-02-19T16:12:31.692Z,99279
2018-02-19T16:14:38.330Z,99288
2018-02-19T16:16:45.380Z,99292
2018-02-19T16:18:52.055Z,99287
2018-02-19T16:20:58.207Z,99292
2018-02-19T16:23:04.906Z,99286
2018-02-19T16:25:17.252Z,99287
2018-02-19T16:27:26.961Z,99288
2018-02-19T16:29:32.378Z,99291
2018-02-19T16:31:40.872Z,99288
2018-02-19T16:33:46.314Z,99287
2018-02-19T16:35:51.622Z,99282
2018-02-19T16:37:57.386Z,99287
2018-02-19T16:40:02.873Z,99286
2018-02-19T16:42:08.180Z,99285
2018-02-19T16:44:13.827Z,99280
2018-02-19T16:46:19.456Z,99280
2018-02-19T16:48:24.848Z,99278
2018-02-19T16:50:30.561Z,99283
2018-02-19T16:52:35.800Z,99284
2018-02-19T16:54:41.297Z,99286
2018-02-19T16:56:46.938Z,99282
2018-02-19T16:58:52.913Z,99272
2018-02-19T17:00:58.189Z,99266
2018-02-19T17:03:03.842Z,99268
2018-02-19T17:05:09.083Z,99272
2018-02-19T17:07:14.708Z,99271
2018-02-19T17:09:20.188Z,99269
2018-02-19T17:11:25.476Z,99267
2018-02-19T17:13:30.908Z,99263
2018-02-19T17:15:36.488Z,99268
2018-02-19T17:17:41.984Z,99275
2018-02-19T17:19:47.344Z,99273
2018-02-19T17:21:53.457Z,99272
2018-02-19T17:23:59.078Z,99265
2018-02-19T17:26:04.625Z,99271
2018-02-19T17:28:11.838Z,99266
2018-02-19T17:30:17.156Z,99279
2018-02-19T17:32:22.461Z,99280
2018-02-19T17:34:28.317Z,99282
2018-02-19T17:36:33.872Z,99279
2018-02-19T17:38:39.150Z,99279
2018-02-19T17:42:08.828Z,99271
2018-02-19T17:44:14.180Z,99271
2018-02-19T17:46:19.796Z,99274
2018-02-19T17:48:25.125Z,99269
2018-02-19T17:50:30.408Z,99271
2018-02-19T17:52:35.975Z,99265
2018-02-19T17:54:41.341Z,99267
2018-02-19T17:56:46.795Z,99264
2018-02-19T17:58:53.118Z,99264
2018-02-19T18:00:58.497Z,99266
2018-02-19T18:03:03.892Z,99265
2018-02-19T18:05:09.648Z,99266
2018-02-19T18:07:14.991Z,99265
2018-02-19T18:09:20.426Z,99259
2018-02-19T18:11:26.184Z,99263
2018-02-19T18:14:56.892Z,99263
2018-02-19T18:17:02.508Z,99262
2018-02-19T18:19:07.855Z,99262
2018-02-19T18:21:13.172Z,99262
2018-02-19T18:23:18.784Z,99263
2018-02-19T18:25:24.174Z,99252
2018-02-19T18:27:29.544Z,99257
2018-02-19T18:29:35.140Z,99256
2018-02-19T18:31:40.496Z,99257
2018-02-19T18:33:45.804Z,99262
2018-02-19T18:35:53.689Z,99262
2018-02-19T18:37:59.185Z,99261
2018-02-19T18:40:04.830Z,99254
2018-02-19T18:42:10.709Z,99258
2018-02-19T18:44:16.017Z,99265
2018-02-19T18:46:21.322Z,99261
2018-02-19T18:48:26.848Z,99262
2018-02-19T18:50:32.552Z,99266
2018-02-19T18:52:37.925Z,99265
2018-02-19T18:54:43.728Z,99268
2018-02-19T18:56:49.253Z,99267
2018-02-19T18:58:54.808Z,99267
2018-02-19T19:01:00.640Z,99263
2018-02-19T19:03:08.078Z,99258
2018-02-19T19:05:13.631Z,99260
2018-02-19T19:07:30.064Z,99253
2018-02-19T19:11:46.803Z,99256
2018-02-19T19:13:52.402Z,99252
2018-02-19T19:15:58.752Z,99254
2018-02-19T19:18:08.124Z,99255
2018-02-19T19:20:13.967Z,99256
2018-02-19T19:22:20.143Z,99252
2018-02-19T19:24:25.568Z,99255
2018-02-19T19:26:31.563Z,99253
2018-02-19T19:28:37.164Z,99253
2018-02-19T19:30:42.587Z,99251
